sensor_id;sensor_type;location;lat;lon;timestamp;temperature;humidity
26964;DHT22;14521;48.148;-1.656;2023-09-19T00:01:16;23.50;89.60
26964;DHT22;14521;48.148;-1.656;2023-09-19T00:04:42;23.50;90.10
26964;DHT22;14521;48.148;-1.656;2023-09-19T00:08:05;23.50;89.80
26964;DHT22;14521;48.148;-1.656;2023-09-19T00:11:27;23.50;90.40
26964;DHT22;14521;48.148;-1.656;2023-09-19T00:14:51;23.60;90.50
26964;DHT22;14521;48.148;-1.656;2023-09-19T00:18:15;23.60;90.00
26964;DHT22;14521;48.148;-1.656;2023-09-19T00:21:44;23.60;90.20
26964;DHT22;14521;48.148;-1.656;2023-09-19T00:25:08;23.60;90.40
26964;DHT22;14521;48.148;-1.656;2023-09-19T00:28:31;23.70;90.60
26964;DHT22;14521;48.148;-1.656;2023-09-19T00:31:55;23.70;90.60
26964;DHT22;14521;48.148;-1.656;2023-09-19T00:35:18;23.70;90.50
26964;DHT22;14521;48.148;-1.656;2023-09-19T00:38:41;23.70;90.40
26964;DHT22;14521;48.148;-1.656;2023-09-19T00:42:03;23.80;90.50
26964;DHT22;14521;48.148;-1.656;2023-09-19T00:45:27;23.80;90.20
26964;DHT22;14521;48.148;-1.656;2023-09-19T00:48:50;23.80;90.30
26964;DHT22;14521;48.148;-1.656;2023-09-19T00:52:13;23.80;90.30
26964;DHT22;14521;48.148;-1.656;2023-09-19T00:55:36;23.80;90.40
26964;DHT22;14521;48.148;-1.656;2023-09-19T00:59:06;23.80;90.30
26964;DHT22;14521;48.148;-1.656;2023-09-19T01:02:28;23.80;90.30
26964;DHT22;14521;48.148;-1.656;2023-09-19T01:05:52;23.80;90.10
26964;DHT22;14521;48.148;-1.656;2023-09-19T01:09:14;23.70;90.10
26964;DHT22;14521;48.148;-1.656;2023-09-19T01:23:47;23.70;89.80
26964;DHT22;14521;48.148;-1.656;2023-09-19T01:27:25;23.60;90.00
26964;DHT22;14521;48.148;-1.656;2023-09-19T01:30:52;23.70;90.10
26964;DHT22;14521;48.148;-1.656;2023-09-19T01:34:19;23.70;90.20
26964;DHT22;14521;48.148;-1.656;2023-09-19T01:37:42;23.70;90.00
26964;DHT22;14521;48.148;-1.656;2023-09-19T01:41:11;23.60;89.90
26964;DHT22;14521;48.148;-1.656;2023-09-19T01:44:49;23.60;89.90
26964;DHT22;14521;48.148;-1.656;2023-09-19T01:48:20;23.60;89.90
26964;DHT22;14521;48.148;-1.656;2023-09-19T01:52:10;23.60;89.60
26964;DHT22;14521;48.148;-1.656;2023-09-19T01:55:46;23.60;89.80
26964;DHT22;14521;48.148;-1.656;2023-09-19T01:59:17;23.60;89.60
26964;DHT22;14521;48.148;-1.656;2023-09-19T02:02:46;23.50;89.30
26964;DHT22;14521;48.148;-1.656;2023-09-19T02:06:14;23.50;90.00
26964;DHT22;14521;48.148;-1.656;2023-09-19T02:09:37;23.50;90.00
26964;DHT22;14521;48.148;-1.656;2023-09-19T02:13:01;23.50;90.00
26964;DHT22;14521;48.148;-1.656;2023-09-19T02:16:26;23.50;89.60
26964;DHT22;14521;48.148;-1.656;2023-09-19T02:19:48;23.50;89.60
26964;DHT22;14521;48.148;-1.656;2023-09-19T02:23:11;23.60;89.80
26964;DHT22;14521;48.148;-1.656;2023-09-19T02:26:34;23.60;89.70
26964;DHT22;14521;48.148;-1.656;2023-09-19T02:30:01;23.60;89.60
26964;DHT22;14521;48.148;-1.656;2023-09-19T02:33:26;23.60;89.60
26964;DHT22;14521;48.148;-1.656;2023-09-19T02:36:48;23.60;89.30
26964;DHT22;14521;48.148;-1.656;2023-09-19T02:40:11;23.60;89.20
26964;DHT22;14521;48.148;-1.656;2023-09-19T02:43:47;23.60;89.00
26964;DHT22;14521;48.148;-1.656;2023-09-19T02:47:10;23.50;89.10
26964;DHT22;14521;48.148;-1.656;2023-09-19T02:50:32;23.50;88.90
26964;DHT22;14521;48.148;-1.656;2023-09-19T02:53:55;23.40;87.90
26964;DHT22;14521;48.148;-1.656;2023-09-19T02:57:18;23.30;88.30
26964;DHT22;14521;48.148;-1.656;2023-09-19T03:00:42;23.20;88.40
26964;DHT22;14521;48.148;-1.656;2023-09-19T03:04:05;23.20;88.70
26964;DHT22;14521;48.148;-1.656;2023-09-19T03:07:30;23.20;88.90
26964;DHT22;14521;48.148;-1.656;2023-09-19T03:10:53;23.20;89.40
26964;DHT22;14521;48.148;-1.656;2023-09-19T03:14:15;23.30;89.30
26964;DHT22;14521;48.148;-1.656;2023-09-19T03:17:43;23.30;89.10
26964;DHT22;14521;48.148;-1.656;2023-09-19T03:21:07;23.30;88.80
26964;DHT22;14521;48.148;-1.656;2023-09-19T03:24:29;23.20;88.60
26964;DHT22;14521;48.148;-1.656;2023-09-19T03:27:56;23.20;88.80
26964;DHT22;14521;48.148;-1.656;2023-09-19T03:31:20;23.10;88.80
26964;DHT22;14521;48.148;-1.656;2023-09-19T03:34:43;23.10;88.90
26964;DHT22;14521;48.148;-1.656;2023-09-19T03:38:07;23.00;88.90
26964;DHT22;14521;48.148;-1.656;2023-09-19T03:41:29;22.90;89.10
26964;DHT22;14521;48.148;-1.656;2023-09-19T03:44:52;22.90;89.60
26964;DHT22;14521;48.148;-1.656;2023-09-19T03:48:14;22.90;89.20
26964;DHT22;14521;48.148;-1.656;2023-09-19T03:51:36;22.90;89.30
26964;DHT22;14521;48.148;-1.656;2023-09-19T03:54:59;22.80;89.30
26964;DHT22;14521;48.148;-1.656;2023-09-19T03:58:23;22.80;89.60
26964;DHT22;14521;48.148;-1.656;2023-09-19T04:01:46;22.70;90.10
26964;DHT22;14521;48.148;-1.656;2023-09-19T04:05:09;22.70;89.80
26964;DHT22;14521;48.148;-1.656;2023-09-19T04:08:33;22.80;89.80
26964;DHT22;14521;48.148;-1.656;2023-09-19T04:11:55;22.80;89.80
26964;DHT22;14521;48.148;-1.656;2023-09-19T04:15:18;22.80;89.80
26964;DHT22;14521;48.148;-1.656;2023-09-19T04:18:40;22.80;89.70
26964;DHT22;14521;48.148;-1.656;2023-09-19T04:22:03;22.80;89.50
26964;DHT22;14521;48.148;-1.656;2023-09-19T04:25:26;22.80;89.90
26964;DHT22;14521;48.148;-1.656;2023-09-19T04:28:50;22.80;89.80
26964;DHT22;14521;48.148;-1.656;2023-09-19T04:32:13;22.90;89.60
26964;DHT22;14521;48.148;-1.656;2023-09-19T04:35:35;22.90;89.30
26964;DHT22;14521;48.148;-1.656;2023-09-19T04:38:58;22.90;89.00
26964;DHT22;14521;48.148;-1.656;2023-09-19T04:42:20;22.90;89.30
26964;DHT22;14521;48.148;-1.656;2023-09-19T04:45:43;22.90;89.40
26964;DHT22;14521;48.148;-1.656;2023-09-19T04:49:06;22.90;89.30
26964;DHT22;14521;48.148;-1.656;2023-09-19T04:52:30;22.90;88.90
26964;DHT22;14521;48.148;-1.656;2023-09-19T04:55:53;22.80;89.00
26964;DHT22;14521;48.148;-1.656;2023-09-19T04:59:17;22.80;89.30
26964;DHT22;14521;48.148;-1.656;2023-09-19T05:02:41;22.80;89.60
26964;DHT22;14521;48.148;-1.656;2023-09-19T05:06:04;22.80;89.90
26964;DHT22;14521;48.148;-1.656;2023-09-19T05:09:27;22.80;89.40
26964;DHT22;14521;48.148;-1.656;2023-09-19T05:12:53;22.80;89.40
26964;DHT22;14521;48.148;-1.656;2023-09-19T05:16:16;22.60;89.30
26964;DHT22;14521;48.148;-1.656;2023-09-19T05:19:38;21.80;90.50
26964;DHT22;14521;48.148;-1.656;2023-09-19T05:23:05;21.20;91.60
26964;DHT22;14521;48.148;-1.656;2023-09-19T05:26:30;20.70;92.50
26964;DHT22;14521;48.148;-1.656;2023-09-19T05:29:52;20.70;92.90
26964;DHT22;14521;48.148;-1.656;2023-09-19T05:33:15;20.50;93.40
26964;DHT22;14521;48.148;-1.656;2023-09-19T05:36:37;20.40;93.30
26964;DHT22;14521;48.148;-1.656;2023-09-19T05:40:01;20.20;93.50
26964;DHT22;14521;48.148;-1.656;2023-09-19T05:43:24;20.10;93.50
26964;DHT22;14521;48.148;-1.656;2023-09-19T05:46:46;20.20;93.40
26964;DHT22;14521;48.148;-1.656;2023-09-19T05:50:10;20.40;93.30
26964;DHT22;14521;48.148;-1.656;2023-09-19T05:53:33;20.60;93.30
26964;DHT22;14521;48.148;-1.656;2023-09-19T05:56:55;21.30;92.60
26964;DHT22;14521;48.148;-1.656;2023-09-19T06:00:20;21.90;92.00
26964;DHT22;14521;48.148;-1.656;2023-09-19T06:03:46;22.20;91.80
26964;DHT22;14521;48.148;-1.656;2023-09-19T06:07:08;22.60;91.40
26964;DHT22;14521;48.148;-1.656;2023-09-19T06:10:31;22.70;91.10
26964;DHT22;14521;48.148;-1.656;2023-09-19T06:13:54;22.80;91.20
26964;DHT22;14521;48.148;-1.656;2023-09-19T06:17:16;22.90;91.30
26964;DHT22;14521;48.148;-1.656;2023-09-19T06:20:41;23.00;91.30
26964;DHT22;14521;48.148;-1.656;2023-09-19T06:24:07;23.00;91.20
26964;DHT22;14521;48.148;-1.656;2023-09-19T06:27:29;23.10;91.40
26964;DHT22;14521;48.148;-1.656;2023-09-19T06:30:51;23.10;91.40
26964;DHT22;14521;48.148;-1.656;2023-09-19T06:34:14;23.10;91.40
26964;DHT22;14521;48.148;-1.656;2023-09-19T06:37:38;23.20;91.30
26964;DHT22;14521;48.148;-1.656;2023-09-19T06:41:01;23.30;91.30
26964;DHT22;14521;48.148;-1.656;2023-09-19T06:44:23;23.30;91.30
26964;DHT22;14521;48.148;-1.656;2023-09-19T06:47:47;23.30;91.30
26964;DHT22;14521;48.148;-1.656;2023-09-19T06:51:14;23.40;91.30
26964;DHT22;14521;48.148;-1.656;2023-09-19T06:54:38;22.70;89.80
26964;DHT22;14521;48.148;-1.656;2023-09-19T06:58:02;22.10;91.50
26964;DHT22;14521;48.148;-1.656;2023-09-19T07:01:24;22.30;92.10
26964;DHT22;14521;48.148;-1.656;2023-09-19T07:04:47;22.40;91.80
26964;DHT22;14521;48.148;-1.656;2023-09-19T07:08:10;22.50;91.60
26964;DHT22;14521;48.148;-1.656;2023-09-19T07:11:34;22.60;91.50
26964;DHT22;14521;48.148;-1.656;2023-09-19T07:14:57;22.70;91.30
26964;DHT22;14521;48.148;-1.656;2023-09-19T07:18:19;22.80;91.20
26964;DHT22;14521;48.148;-1.656;2023-09-19T07:21:42;22.90;91.10
26964;DHT22;14521;48.148;-1.656;2023-09-19T07:25:05;22.90;91.00
26964;DHT22;14521;48.148;-1.656;2023-09-19T07:28:27;22.90;90.90
26964;DHT22;14521;48.148;-1.656;2023-09-19T07:31:50;22.90;91.00
26964;DHT22;14521;48.148;-1.656;2023-09-19T07:35:12;22.80;91.00
26964;DHT22;14521;48.148;-1.656;2023-09-19T07:38:35;23.00;91.00
26964;DHT22;14521;48.148;-1.656;2023-09-19T07:41:57;23.00;90.90
26964;DHT22;14521;48.148;-1.656;2023-09-19T07:45:20;23.00;90.90
26964;DHT22;14521;48.148;-1.656;2023-09-19T07:48:42;23.00;90.90
26964;DHT22;14521;48.148;-1.656;2023-09-19T07:52:09;23.10;91.10
26964;DHT22;14521;48.148;-1.656;2023-09-19T07:55:32;23.10;91.00
26964;DHT22;14521;48.148;-1.656;2023-09-19T07:58:56;23.10;91.00
26964;DHT22;14521;48.148;-1.656;2023-09-19T08:02:21;23.10;91.00
26964;DHT22;14521;48.148;-1.656;2023-09-19T08:05:45;23.10;91.40
26964;DHT22;14521;48.148;-1.656;2023-09-19T08:09:08;23.10;91.00
26964;DHT22;14521;48.148;-1.656;2023-09-19T08:12:33;23.10;91.00
26964;DHT22;14521;48.148;-1.656;2023-09-19T08:15:57;23.10;91.50
26964;DHT22;14521;48.148;-1.656;2023-09-19T08:19:19;23.10;91.20
26964;DHT22;14521;48.148;-1.656;2023-09-19T08:22:52;23.00;91.70
26964;DHT22;14521;48.148;-1.656;2023-09-19T08:26:17;23.10;91.30
26964;DHT22;14521;48.148;-1.656;2023-09-19T08:29:39;23.20;91.40
26964;DHT22;14521;48.148;-1.656;2023-09-19T08:33:02;23.20;91.30
26964;DHT22;14521;48.148;-1.656;2023-09-19T08:36:27;23.30;91.20
26964;DHT22;14521;48.148;-1.656;2023-09-19T08:39:49;23.40;91.20
26964;DHT22;14521;48.148;-1.656;2023-09-19T08:43:12;23.30;91.20
26964;DHT22;14521;48.148;-1.656;2023-09-19T08:46:35;23.40;91.30
26964;DHT22;14521;48.148;-1.656;2023-09-19T08:50:06;23.40;91.20
26964;DHT22;14521;48.148;-1.656;2023-09-19T08:53:41;23.40;91.20
26964;DHT22;14521;48.148;-1.656;2023-09-19T08:57:07;23.40;91.20
26964;DHT22;14521;48.148;-1.656;2023-09-19T09:00:34;23.50;91.20
26964;DHT22;14521;48.148;-1.656;2023-09-19T09:03:57;23.50;91.10
26964;DHT22;14521;48.148;-1.656;2023-09-19T09:07:20;23.50;91.10
26964;DHT22;14521;48.148;-1.656;2023-09-19T09:10:44;23.60;91.10
26964;DHT22;14521;48.148;-1.656;2023-09-19T09:14:07;23.60;91.20
26964;DHT22;14521;48.148;-1.656;2023-09-19T09:17:30;23.70;91.20
26964;DHT22;14521;48.148;-1.656;2023-09-19T09:20:53;23.70;91.20
26964;DHT22;14521;48.148;-1.656;2023-09-19T09:24:33;23.70;91.10
26964;DHT22;14521;48.148;-1.656;2023-09-19T09:28:00;23.80;91.10
26964;DHT22;14521;48.148;-1.656;2023-09-19T09:31:24;23.80;91.10
26964;DHT22;14521;48.148;-1.656;2023-09-19T09:34:51;23.80;91.10
26964;DHT22;14521;48.148;-1.656;2023-09-19T09:38:14;23.80;91.20
26964;DHT22;14521;48.148;-1.656;2023-09-19T09:41:38;23.80;91.10
26964;DHT22;14521;48.148;-1.656;2023-09-19T09:48:38;23.80;90.90
26964;DHT22;14521;48.148;-1.656;2023-09-19T09:52:05;23.80;91.00
26964;DHT22;14521;48.148;-1.656;2023-09-19T09:59:51;23.80;91.00
26964;DHT22;14521;48.148;-1.656;2023-09-19T10:03:23;23.90;90.80
26964;DHT22;14521;48.148;-1.656;2023-09-19T10:06:54;23.90;90.60
26964;DHT22;14521;48.148;-1.656;2023-09-19T10:10:39;23.80;90.70
26964;DHT22;14521;48.148;-1.656;2023-09-19T10:14:06;23.90;90.50
26964;DHT22;14521;48.148;-1.656;2023-09-19T10:17:34;23.80;90.50
26964;DHT22;14521;48.148;-1.656;2023-09-19T10:20:57;23.80;90.70
26964;DHT22;14521;48.148;-1.656;2023-09-19T10:24:20;23.80;90.40
26964;DHT22;14521;48.148;-1.656;2023-09-19T10:27:43;23.90;90.70
26964;DHT22;14521;48.148;-1.656;2023-09-19T10:31:07;23.80;90.40
26964;DHT22;14521;48.148;-1.656;2023-09-19T10:34:38;23.90;90.50
26964;DHT22;14521;48.148;-1.656;2023-09-19T10:38:04;23.90;90.30
26964;DHT22;14521;48.148;-1.656;2023-09-19T10:41:29;23.90;90.30
26964;DHT22;14521;48.148;-1.656;2023-09-19T10:44:52;23.90;90.20
26964;DHT22;14521;48.148;-1.656;2023-09-19T10:48:17;23.90;90.10
26964;DHT22;14521;48.148;-1.656;2023-09-19T10:51:52;23.90;90.00
26964;DHT22;14521;48.148;-1.656;2023-09-19T10:55:18;23.90;89.70
26964;DHT22;14521;48.148;-1.656;2023-09-19T10:58:42;23.90;89.20
26964;DHT22;14521;48.148;-1.656;2023-09-19T11:02:17;23.90;88.90
26964;DHT22;14521;48.148;-1.656;2023-09-19T11:05:40;23.90;89.10
26964;DHT22;14521;48.148;-1.656;2023-09-19T11:09:04;23.90;88.90
26964;DHT22;14521;48.148;-1.656;2023-09-19T11:16:04;23.90;88.70
26964;DHT22;14521;48.148;-1.656;2023-09-19T11:23:34;24.00;89.00
26964;DHT22;14521;48.148;-1.656;2023-09-19T11:27:12;23.90;88.60
26964;DHT22;14521;48.148;-1.656;2023-09-19T11:30:38;23.90;88.40
26964;DHT22;14521;48.148;-1.656;2023-09-19T11:34:38;24.00;88.20
26964;DHT22;14521;48.148;-1.656;2023-09-19T11:38:01;23.90;87.90
26964;DHT22;14521;48.148;-1.656;2023-09-19T11:41:39;24.00;88.10
26964;DHT22;14521;48.148;-1.656;2023-09-19T11:45:02;24.00;87.80
26964;DHT22;14521;48.148;-1.656;2023-09-19T11:48:24;24.00;88.00
26964;DHT22;14521;48.148;-1.656;2023-09-19T11:51:51;24.00;87.90
26964;DHT22;14521;48.148;-1.656;2023-09-19T11:55:13;24.00;87.80
26964;DHT22;14521;48.148;-1.656;2023-09-19T11:58:55;24.00;87.90
26964;DHT22;14521;48.148;-1.656;2023-09-19T12:02:36;24.00;87.70
26964;DHT22;14521;48.148;-1.656;2023-09-19T12:06:01;24.00;87.30
26964;DHT22;14521;48.148;-1.656;2023-09-19T12:09:32;24.00;87.10
26964;DHT22;14521;48.148;-1.656;2023-09-19T12:12:55;24.00;86.80
26964;DHT22;14521;48.148;-1.656;2023-09-19T12:16:20;24.00;86.50
26964;DHT22;14521;48.148;-1.656;2023-09-19T12:19:53;24.00;86.20
26964;DHT22;14521;48.148;-1.656;2023-09-19T12:23:15;23.90;86.40
26964;DHT22;14521;48.148;-1.656;2023-09-19T12:26:43;24.00;86.30
26964;DHT22;14521;48.148;-1.656;2023-09-19T12:30:06;24.00;86.20
26964;DHT22;14521;48.148;-1.656;2023-09-19T12:33:45;24.00;86.20
26964;DHT22;14521;48.148;-1.656;2023-09-19T12:37:11;24.00;86.00
26964;DHT22;14521;48.148;-1.656;2023-09-19T12:40:35;24.00;85.60
26964;DHT22;14521;48.148;-1.656;2023-09-19T12:44:01;24.00;85.30
26964;DHT22;14521;48.148;-1.656;2023-09-19T12:47:24;23.90;85.10
26964;DHT22;14521;48.148;-1.656;2023-09-19T12:51:06;24.00;85.10
26964;DHT22;14521;48.148;-1.656;2023-09-19T12:54:39;24.00;84.90
26964;DHT22;14521;48.148;-1.656;2023-09-19T12:58:14;24.00;85.00
26964;DHT22;14521;48.148;-1.656;2023-09-19T13:01:42;24.00;85.10
26964;DHT22;14521;48.148;-1.656;2023-09-19T13:05:12;24.00;85.10
26964;DHT22;14521;48.148;-1.656;2023-09-19T13:08:37;24.00;85.20
26964;DHT22;14521;48.148;-1.656;2023-09-19T13:12:05;24.00;85.30
26964;DHT22;14521;48.148;-1.656;2023-09-19T13:15:54;24.00;85.20
26964;DHT22;14521;48.148;-1.656;2023-09-19T13:19:39;24.00;85.10
26964;DHT22;14521;48.148;-1.656;2023-09-19T13:23:02;24.00;84.70
26964;DHT22;14521;48.148;-1.656;2023-09-19T13:26:32;24.00;84.90
26964;DHT22;14521;48.148;-1.656;2023-09-19T13:29:55;24.00;84.90
26964;DHT22;14521;48.148;-1.656;2023-09-19T13:33:17;24.00;84.90
26964;DHT22;14521;48.148;-1.656;2023-09-19T13:36:44;23.90;84.80
26964;DHT22;14521;48.148;-1.656;2023-09-19T13:40:13;23.90;84.90
26964;DHT22;14521;48.148;-1.656;2023-09-19T13:43:37;23.90;84.90
26964;DHT22;14521;48.148;-1.656;2023-09-19T13:47:00;24.00;84.90
26964;DHT22;14521;48.148;-1.656;2023-09-19T13:50:24;23.90;85.10
26964;DHT22;14521;48.148;-1.656;2023-09-19T13:53:47;23.90;85.20
26964;DHT22;14521;48.148;-1.656;2023-09-19T13:57:09;23.90;85.10
26964;DHT22;14521;48.148;-1.656;2023-09-19T14:00:32;23.90;85.30
26964;DHT22;14521;48.148;-1.656;2023-09-19T14:03:57;23.90;85.30
26964;DHT22;14521;48.148;-1.656;2023-09-19T14:07:20;23.90;85.50
26964;DHT22;14521;48.148;-1.656;2023-09-19T14:10:42;24.00;85.70
26964;DHT22;14521;48.148;-1.656;2023-09-19T14:14:05;24.00;87.00
26964;DHT22;14521;48.148;-1.656;2023-09-19T14:17:28;24.00;86.00
26964;DHT22;14521;48.148;-1.656;2023-09-19T14:20:50;24.00;86.10
26964;DHT22;14521;48.148;-1.656;2023-09-19T14:24:18;24.00;87.80
26964;DHT22;14521;48.148;-1.656;2023-09-19T14:27:40;23.80;87.10
26964;DHT22;14521;48.148;-1.656;2023-09-19T14:31:05;23.80;87.60
26964;DHT22;14521;48.148;-1.656;2023-09-19T14:34:28;23.60;86.50
26964;DHT22;14521;48.148;-1.656;2023-09-19T14:37:50;23.50;86.70
26964;DHT22;14521;48.148;-1.656;2023-09-19T14:41:13;23.60;86.80
26964;DHT22;14521;48.148;-1.656;2023-09-19T14:44:36;23.60;87.00
26964;DHT22;14521;48.148;-1.656;2023-09-19T14:47:59;23.70;86.40
26964;DHT22;14521;48.148;-1.656;2023-09-19T14:51:21;23.70;86.30
26964;DHT22;14521;48.148;-1.656;2023-09-19T14:54:44;23.70;86.40
26964;DHT22;14521;48.148;-1.656;2023-09-19T14:58:06;23.70;86.40
26964;DHT22;14521;48.148;-1.656;2023-09-19T15:01:29;23.70;86.30
26964;DHT22;14521;48.148;-1.656;2023-09-19T15:04:52;23.70;86.10
26964;DHT22;14521;48.148;-1.656;2023-09-19T15:08:15;23.70;86.00
26964;DHT22;14521;48.148;-1.656;2023-09-19T15:11:37;23.70;86.10
26964;DHT22;14521;48.148;-1.656;2023-09-19T15:14:59;23.70;85.80
26964;DHT22;14521;48.148;-1.656;2023-09-19T15:18:22;23.70;85.80
26964;DHT22;14521;48.148;-1.656;2023-09-19T15:21:45;23.70;85.10
26964;DHT22;14521;48.148;-1.656;2023-09-19T15:25:07;23.70;85.70
26964;DHT22;14521;48.148;-1.656;2023-09-19T15:28:30;23.70;85.30
26964;DHT22;14521;48.148;-1.656;2023-09-19T15:31:55;23.70;85.60
26964;DHT22;14521;48.148;-1.656;2023-09-19T15:35:20;23.80;86.20
26964;DHT22;14521;48.148;-1.656;2023-09-19T15:39:03;23.80;85.90
26964;DHT22;14521;48.148;-1.656;2023-09-19T15:42:28;23.90;85.80
26964;DHT22;14521;48.148;-1.656;2023-09-19T15:45:50;23.90;85.70
26964;DHT22;14521;48.148;-1.656;2023-09-19T15:49:14;23.90;85.70
26964;DHT22;14521;48.148;-1.656;2023-09-19T15:52:37;23.90;85.60
26964;DHT22;14521;48.148;-1.656;2023-09-19T15:56:05;23.90;85.80
26964;DHT22;14521;48.148;-1.656;2023-09-19T15:59:28;23.90;85.80
26964;DHT22;14521;48.148;-1.656;2023-09-19T16:02:52;24.00;85.90
26964;DHT22;14521;48.148;-1.656;2023-09-19T16:06:22;24.00;86.00
26964;DHT22;14521;48.148;-1.656;2023-09-19T16:09:47;24.00;86.20
26964;DHT22;14521;48.148;-1.656;2023-09-19T16:13:10;24.00;86.50
26964;DHT22;14521;48.148;-1.656;2023-09-19T16:16:32;24.00;86.60
26964;DHT22;14521;48.148;-1.656;2023-09-19T16:19:57;24.00;86.40
26964;DHT22;14521;48.148;-1.656;2023-09-19T16:23:19;24.00;86.50
26964;DHT22;14521;48.148;-1.656;2023-09-19T16:26:42;24.00;86.50
26964;DHT22;14521;48.148;-1.656;2023-09-19T16:30:05;24.00;86.50
26964;DHT22;14521;48.148;-1.656;2023-09-19T16:33:35;24.00;86.40
26964;DHT22;14521;48.148;-1.656;2023-09-19T16:37:00;24.00;86.50
26964;DHT22;14521;48.148;-1.656;2023-09-19T16:40:24;24.00;86.40
26964;DHT22;14521;48.148;-1.656;2023-09-19T16:43:47;24.00;86.50
26964;DHT22;14521;48.148;-1.656;2023-09-19T16:47:10;24.00;86.50
26964;DHT22;14521;48.148;-1.656;2023-09-19T16:50:32;24.10;86.60
26964;DHT22;14521;48.148;-1.656;2023-09-19T16:53:57;24.00;86.50
26964;DHT22;14521;48.148;-1.656;2023-09-19T16:57:20;24.00;86.50
26964;DHT22;14521;48.148;-1.656;2023-09-19T17:00:25;24.10;86.60
26964;DHT22;14521;48.148;-1.656;2023-09-19T17:03:48;24.00;86.70
26964;DHT22;14521;48.148;-1.656;2023-09-19T17:07:11;24.00;86.80
26964;DHT22;14521;48.148;-1.656;2023-09-19T17:10:35;24.10;87.00
26964;DHT22;14521;48.148;-1.656;2023-09-19T17:13:57;24.10;88.00
26964;DHT22;14521;48.148;-1.656;2023-09-19T17:17:19;24.00;87.00
26964;DHT22;14521;48.148;-1.656;2023-09-19T17:20:42;24.10;87.30
26964;DHT22;14521;48.148;-1.656;2023-09-19T17:24:05;24.10;87.20
26964;DHT22;14521;48.148;-1.656;2023-09-19T17:27:30;24.10;87.60
26964;DHT22;14521;48.148;-1.656;2023-09-19T17:30:52;24.20;87.90
26964;DHT22;14521;48.148;-1.656;2023-09-19T17:34:15;24.20;88.00
26964;DHT22;14521;48.148;-1.656;2023-09-19T17:37:38;24.20;87.90
26964;DHT22;14521;48.148;-1.656;2023-09-19T17:41:02;24.20;88.60
26964;DHT22;14521;48.148;-1.656;2023-09-19T17:44:25;24.10;88.50
26964;DHT22;14521;48.148;-1.656;2023-09-19T17:47:47;24.10;88.30
26964;DHT22;14521;48.148;-1.656;2023-09-19T17:51:10;24.10;89.30
26964;DHT22;14521;48.148;-1.656;2023-09-19T17:54:32;24.00;88.40
26964;DHT22;14521;48.148;-1.656;2023-09-19T17:57:56;24.00;88.30
26964;DHT22;14521;48.148;-1.656;2023-09-19T18:01:20;24.10;88.30
26964;DHT22;14521;48.148;-1.656;2023-09-19T18:04:43;24.10;87.70
26964;DHT22;14521;48.148;-1.656;2023-09-19T18:08:05;24.20;88.10
26964;DHT22;14521;48.148;-1.656;2023-09-19T18:11:27;24.20;87.70
26964;DHT22;14521;48.148;-1.656;2023-09-19T18:14:50;24.10;88.10
26964;DHT22;14521;48.148;-1.656;2023-09-19T18:18:13;24.00;88.60
26964;DHT22;14521;48.148;-1.656;2023-09-19T18:21:36;24.00;88.80
26964;DHT22;14521;48.148;-1.656;2023-09-19T18:25:00;24.00;89.10
26964;DHT22;14521;48.148;-1.656;2023-09-19T18:28:23;24.00;89.10
26964;DHT22;14521;48.148;-1.656;2023-09-19T18:31:45;23.90;89.00
26964;DHT22;14521;48.148;-1.656;2023-09-19T18:35:07;24.00;89.20
26964;DHT22;14521;48.148;-1.656;2023-09-19T18:38:48;23.90;89.20
26964;DHT22;14521;48.148;-1.656;2023-09-19T18:42:11;23.90;89.30
26964;DHT22;14521;48.148;-1.656;2023-09-19T18:45:33;24.00;89.80
26964;DHT22;14521;48.148;-1.656;2023-09-19T18:49:02;23.90;89.50
26964;DHT22;14521;48.148;-1.656;2023-09-19T18:52:25;23.80;90.50
26964;DHT22;14521;48.148;-1.656;2023-09-19T18:55:47;23.70;91.50
26964;DHT22;14521;48.148;-1.656;2023-09-19T18:59:10;23.60;91.80
26964;DHT22;14521;48.148;-1.656;2023-09-19T19:02:36;23.50;92.00
26964;DHT22;14521;48.148;-1.656;2023-09-19T19:06:03;23.60;92.30
26964;DHT22;14521;48.148;-1.656;2023-09-19T19:09:26;23.60;91.50
26964;DHT22;14521;48.148;-1.656;2023-09-19T19:12:48;23.50;91.40
26964;DHT22;14521;48.148;-1.656;2023-09-19T19:16:11;23.50;91.50
26964;DHT22;14521;48.148;-1.656;2023-09-19T19:19:34;23.40;91.50
26964;DHT22;14521;48.148;-1.656;2023-09-19T19:22:56;23.40;91.60
26964;DHT22;14521;48.148;-1.656;2023-09-19T19:26:21;23.40;91.60
26964;DHT22;14521;48.148;-1.656;2023-09-19T19:29:44;23.40;91.50
26964;DHT22;14521;48.148;-1.656;2023-09-19T19:33:06;23.40;91.50
26964;DHT22;14521;48.148;-1.656;2023-09-19T19:36:29;23.40;91.40
26964;DHT22;14521;48.148;-1.656;2023-09-19T19:39:51;23.40;91.40
26964;DHT22;14521;48.148;-1.656;2023-09-19T19:43:14;23.40;91.70
26964;DHT22;14521;48.148;-1.656;2023-09-19T19:46:37;23.50;91.70
26964;DHT22;14521;48.148;-1.656;2023-09-19T19:49:59;23.50;91.70
26964;DHT22;14521;48.148;-1.656;2023-09-19T19:53:25;23.60;91.80
26964;DHT22;14521;48.148;-1.656;2023-09-19T19:56:48;23.60;92.00
26964;DHT22;14521;48.148;-1.656;2023-09-19T20:00:10;23.50;92.20
26964;DHT22;14521;48.148;-1.656;2023-09-19T20:03:35;23.50;92.10
26964;DHT22;14521;48.148;-1.656;2023-09-19T20:07:00;23.50;92.30
26964;DHT22;14521;48.148;-1.656;2023-09-19T20:10:22;23.50;92.50
26964;DHT22;14521;48.148;-1.656;2023-09-19T20:13:45;23.50;92.50
26964;DHT22;14521;48.148;-1.656;2023-09-19T20:16:50;23.40;92.40
26964;DHT22;14521;48.148;-1.656;2023-09-19T20:20:16;23.40;92.40
26964;DHT22;14521;48.148;-1.656;2023-09-19T20:23:41;23.40;92.40
26964;DHT22;14521;48.148;-1.656;2023-09-19T20:27:06;23.40;92.50
26964;DHT22;14521;48.148;-1.656;2023-09-19T20:30:29;23.40;92.50
26964;DHT22;14521;48.148;-1.656;2023-09-19T20:33:51;23.40;92.60
26964;DHT22;14521;48.148;-1.656;2023-09-19T20:37:14;23.40;92.60
26964;DHT22;14521;48.148;-1.656;2023-09-19T20:40:40;23.40;92.60
26964;DHT22;14521;48.148;-1.656;2023-09-19T20:44:03;23.30;92.60
26964;DHT22;14521;48.148;-1.656;2023-09-19T20:47:26;23.30;92.70
26964;DHT22;14521;48.148;-1.656;2023-09-19T20:50:49;23.30;92.80
26964;DHT22;14521;48.148;-1.656;2023-09-19T20:54:14;23.20;92.90
26964;DHT22;14521;48.148;-1.656;2023-09-19T20:57:38;23.20;93.10
26964;DHT22;14521;48.148;-1.656;2023-09-19T21:01:02;23.10;93.10
26964;DHT22;14521;48.148;-1.656;2023-09-19T21:04:27;23.10;93.20
26964;DHT22;14521;48.148;-1.656;2023-09-19T21:07:51;23.00;93.50
26964;DHT22;14521;48.148;-1.656;2023-09-19T21:11:18;23.10;93.50
26964;DHT22;14521;48.148;-1.656;2023-09-19T21:14:58;23.20;93.60
26964;DHT22;14521;48.148;-1.656;2023-09-19T21:18:23;23.10;93.60
26964;DHT22;14521;48.148;-1.656;2023-09-19T21:21:45;23.10;93.70
26964;DHT22;14521;48.148;-1.656;2023-09-19T21:25:10;23.10;93.80
26964;DHT22;14521;48.148;-1.656;2023-09-19T21:28:34;23.10;93.80
26964;DHT22;14521;48.148;-1.656;2023-09-19T21:31:57;22.90;94.00
26964;DHT22;14521;48.148;-1.656;2023-09-19T21:35:19;23.00;94.00
26964;DHT22;14521;48.148;-1.656;2023-09-19T21:38:42;23.10;94.00